createdAt,value
2019-02-28T00:00:46.480Z,24.17
2019-02-28T00:03:15.088Z,23.77
2019-02-28T00:05:43.718Z,20.57
2019-02-28T00:08:12.333Z,21.63
2019-02-28T00:10:40.894Z,23.13
2019-02-28T00:13:09.432Z,26.33
2019-02-28T00:15:37.935Z,41.33
2019-02-28T00:18:06.552Z,20.50
2019-02-28T00:20:36.605Z,22.97
2019-02-28T00:23:05.426Z,21.13
2019-02-28T00:25:37.781Z,25.77
2019-02-28T00:28:04.558Z,22.70
2019-02-28T00:30:33.092Z,25.00
2019-02-28T00:33:01.630Z,22.07
2019-02-28T00:35:30.178Z,28.73
2019-02-28T00:37:58.715Z,26.43
2019-02-28T00:40:27.288Z,27.80
2019-02-28T00:42:55.913Z,30.07
2019-02-28T00:45:24.523Z,18.33
2019-02-28T00:47:53.067Z,20.17
2019-02-28T00:50:21.609Z,21.07
2019-02-28T00:52:50.152Z,23.60
2019-02-28T00:55:18.750Z,29.77
2019-02-28T00:57:47.372Z,29.33
2019-02-28T01:00:17.890Z,24.73
2019-02-28T01:02:52.146Z,15.40
2019-02-28T01:05:16.892Z,25.77
2019-02-28T01:07:48.118Z,34.70
2019-02-28T01:10:16.061Z,32.37
2019-02-28T01:12:44.603Z,31.90
2019-02-28T01:15:15.321Z,30.70
2019-02-28T01:17:44.028Z,26.50
2019-02-28T01:20:16.142Z,23.40
2019-02-28T01:22:43.522Z,31.70
2019-02-28T01:25:14.403Z,24.93
2019-02-28T01:27:43.034Z,27.80
2019-02-28T01:30:15.902Z,27.37
2019-02-28T01:32:49.732Z,29.37
2019-02-28T01:35:14.974Z,29.33
2019-02-28T01:37:43.630Z,30.37
2019-02-28T01:40:14.135Z,27.33
2019-02-28T01:42:42.746Z,26.53
2019-02-28T01:45:13.176Z,30.90
2019-02-28T01:47:42.003Z,28.50
2019-02-28T01:50:12.314Z,25.67
2019-02-28T01:52:44.464Z,28.47
2019-02-28T01:55:11.784Z,24.43
2019-02-28T01:57:43.761Z,26.33
2019-02-28T02:00:16.489Z,22.73
2019-02-28T02:02:45.050Z,30.30
2019-02-28T02:05:16.860Z,30.50
2019-02-28T02:07:44.182Z,28.33
2019-02-28T02:10:21.349Z,22.20
2019-02-28T02:12:50.839Z,25.70
2019-02-28T02:15:19.589Z,30.13
2019-02-28T02:17:48.198Z,23.23
2019-02-28T02:20:17.409Z,30.00
2019-02-28T02:22:46.140Z,25.40
2019-02-28T02:25:15.059Z,25.07
2019-02-28T02:27:44.551Z,20.70
2019-02-28T02:30:16.427Z,24.40
2019-02-28T02:32:45.148Z,29.37
2019-02-28T02:35:13.807Z,26.67
2019-02-28T02:37:42.436Z,21.50
2019-02-28T02:40:13.992Z,22.37
2019-02-28T02:42:47.681Z,22.73
2019-02-28T02:45:16.153Z,23.13
2019-02-28T02:47:44.898Z,22.53
2019-02-28T02:50:15.496Z,25.30
2019-02-28T02:52:44.206Z,27.53
2019-02-28T02:55:13.526Z,23.23
2019-02-28T02:57:42.286Z,24.83
2019-02-28T03:00:15.076Z,21.40
2019-02-28T03:02:44.056Z,25.60
2019-02-28T03:05:12.759Z,25.00
2019-02-28T03:07:41.306Z,35.23
2019-02-28T03:10:19.182Z,25.43
2019-02-28T03:12:47.498Z,29.57
2019-02-28T03:15:21.368Z,26.13
2019-02-28T03:17:48.842Z,27.13
2019-02-28T03:20:18.017Z,29.90
2019-02-28T03:22:46.688Z,22.97
2019-02-28T03:25:16.320Z,24.43
2019-02-28T03:27:45.049Z,22.47
2019-02-28T03:30:28.482Z,28.93
2019-02-28T03:32:50.994Z,25.27
2019-02-28T03:35:19.649Z,28.80
2019-02-28T03:37:48.167Z,22.37
2019-02-28T03:40:16.841Z,31.67
2019-02-28T03:42:45.454Z,26.90
2019-02-28T03:45:15.637Z,27.07
2019-02-28T03:47:44.272Z,27.73
2019-02-28T03:50:13.312Z,31.00
2019-02-28T03:52:44.177Z,24.57
2019-02-28T03:55:13.821Z,28.03
2019-02-28T03:57:42.597Z,27.07
2019-02-28T04:00:22.085Z,22.60
2019-02-28T04:02:56.659Z,28.90
2019-02-28T04:05:26.656Z,22.67
2019-02-28T04:07:53.479Z,29.87
2019-02-28T04:10:22.484Z,23.17
2019-02-28T04:12:51.545Z,29.00
2019-02-28T04:15:20.968Z,22.63
2019-02-28T04:17:49.621Z,21.80
2019-02-28T04:20:18.393Z,29.50
2019-02-28T04:22:47.128Z,26.30
2019-02-28T04:25:22.472Z,25.43
2019-02-28T04:27:46.053Z,24.70
2019-02-28T04:30:15.426Z,21.93
2019-02-28T04:32:44.039Z,27.77
2019-02-28T04:35:12.766Z,22.30
2019-02-28T04:37:46.540Z,23.93
2019-02-28T04:40:14.723Z,23.30
2019-02-28T04:42:43.339Z,27.30
2019-02-28T04:45:13.473Z,25.23
2019-02-28T04:47:42.224Z,25.83
2019-02-28T04:50:12.257Z,32.63
2019-02-28T04:52:46.774Z,26.13
2019-02-28T04:55:11.618Z,26.53
2019-02-28T04:57:40.236Z,23.00
2019-02-28T05:00:11.778Z,23.43
2019-02-28T05:02:40.306Z,23.60
2019-02-28T05:05:12.193Z,21.23
2019-02-28T05:07:39.424Z,17.30
2019-02-28T05:10:09.567Z,22.67
2019-02-28T05:12:39.746Z,21.80
2019-02-28T05:15:13.935Z,25.53
2019-02-28T05:17:42.657Z,20.40
2019-02-28T05:20:12.276Z,17.57
2019-02-28T05:22:41.027Z,23.03
2019-02-28T05:25:10.609Z,18.33
2019-02-28T05:27:39.197Z,30.43
2019-02-28T05:30:19.435Z,24.90
2019-02-28T05:32:46.008Z,28.33
2019-02-28T05:35:14.659Z,21.97
2019-02-28T05:37:46.906Z,32.77
2019-02-28T05:40:14.803Z,33.50
2019-02-28T05:42:43.461Z,20.17
2019-02-28T05:45:14.859Z,24.07
2019-02-28T05:47:46.632Z,26.53
2019-02-28T05:50:16.577Z,26.77
2019-02-28T05:52:43.555Z,24.03
2019-02-28T05:55:12.265Z,24.40
2019-02-28T05:57:43.551Z,24.80
2019-02-28T06:00:17.375Z,26.70
2019-02-28T06:02:45.986Z,20.97
2019-02-28T06:05:14.532Z,21.27
2019-02-28T06:07:43.171Z,22.37
2019-02-28T06:10:13.617Z,25.73
2019-02-28T06:12:43.719Z,25.23
2019-02-28T06:15:16.518Z,27.30
2019-02-28T06:17:45.129Z,36.27
2019-02-28T06:20:16.544Z,39.97
2019-02-28T06:22:44.606Z,33.70
2019-02-28T06:25:22.845Z,33.47
2019-02-28T06:27:49.193Z,35.60
2019-02-28T06:30:16.081Z,39.23
2019-02-28T06:32:44.649Z,27.63
2019-02-28T06:35:17.278Z,35.73
2019-02-28T06:37:44.487Z,22.40
2019-02-28T06:40:14.998Z,32.93
2019-02-28T06:42:46.794Z,40.40
2019-02-28T06:45:20.547Z,38.80
2019-02-28T06:47:50.121Z,48.53
2019-02-28T06:50:18.891Z,45.47
2019-02-28T06:52:47.542Z,49.93
2019-02-28T06:55:26.663Z,34.10
2019-02-28T06:57:55.281Z,34.03
2019-02-28T07:00:23.856Z,31.43
2019-02-28T07:02:52.355Z,28.37
2019-02-28T07:05:24.277Z,33.63
2019-02-28T07:07:51.259Z,41.03
2019-02-28T07:10:19.956Z,32.00
2019-02-28T07:12:48.519Z,28.83
2019-02-28T07:15:20.476Z,29.63
2019-02-28T07:17:47.616Z,27.73
2019-02-28T07:20:18.298Z,31.60
2019-02-28T07:22:46.844Z,25.17
2019-02-28T07:25:15.471Z,26.20
2019-02-28T07:27:44.039Z,21.93
2019-02-28T07:30:19.292Z,29.30
2019-02-28T07:32:48.302Z,24.03
2019-02-28T07:35:16.912Z,26.43
2019-02-28T07:37:45.552Z,23.43
2019-02-28T07:40:17.265Z,31.47
2019-02-28T07:42:46.238Z,30.47
2019-02-28T07:45:15.454Z,27.03
2019-02-28T07:47:44.083Z,28.37
2019-02-28T07:50:16.868Z,30.57
2019-02-28T07:52:45.496Z,37.73
2019-02-28T07:55:21.216Z,39.83
2019-02-28T07:57:54.287Z,33.03
2019-02-28T08:00:21.472Z,34.27
2019-02-28T08:02:50.491Z,49.83
2019-02-28T08:05:19.193Z,34.27
2019-02-28T08:07:52.121Z,26.73
2019-02-28T08:10:29.242Z,27.93
2019-02-28T08:12:57.849Z,21.67
2019-02-28T08:15:28.369Z,30.90
2019-02-28T08:17:56.987Z,27.73
2019-02-28T08:20:25.523Z,27.67
2019-02-28T08:22:56.500Z,30.12
2019-02-28T08:25:24.619Z,38.47
2019-02-28T08:27:53.234Z,38.17
2019-02-28T08:30:33.258Z,36.13
2019-02-28T08:33:01.793Z,34.65
2019-02-28T08:35:33.997Z,31.75
2019-02-28T08:38:00.772Z,31.57
2019-02-28T08:40:29.686Z,32.15
2019-02-28T08:42:58.285Z,30.17
2019-02-28T08:45:32.716Z,32.25
2019-02-28T08:47:57.189Z,28.50
2019-02-28T08:50:26.545Z,32.48
2019-02-28T08:52:59.936Z,32.53
2019-02-28T08:55:29.383Z,34.75
2019-02-28T08:58:05.031Z,27.75
2019-02-28T09:00:32.648Z,25.27
2019-02-28T09:03:00.718Z,29.42
2019-02-28T09:05:32.145Z,25.80
2019-02-28T09:08:00.751Z,16.12
2019-02-28T09:10:29.364Z,13.70
2019-02-28T09:12:57.995Z,11.28
2019-02-28T09:15:30.201Z,10.40
2019-02-28T09:17:59.477Z,12.53
2019-02-28T09:20:27.227Z,17.02
2019-02-28T09:23:01.538Z,10.23
2019-02-28T09:25:26.992Z,14.60
2019-02-28T09:27:55.650Z,11.00
2019-02-28T09:30:29.623Z,10.90
2019-02-28T09:32:57.775Z,11.28
2019-02-28T09:35:26.351Z,9.83
2019-02-28T09:37:54.982Z,10.03
2019-02-28T09:40:28.279Z,19.77
2019-02-28T09:42:53.923Z,9.95
2019-02-28T09:45:30.712Z,13.25
2019-02-28T09:48:01.877Z,10.75
2019-02-28T09:50:29.635Z,10.75
2019-02-28T09:52:58.237Z,8.83
2019-02-28T09:55:26.812Z,14.53
2019-02-28T09:57:57.441Z,11.78
2019-02-28T10:00:27.830Z,10.13
2019-02-28T10:02:56.460Z,11.22
2019-02-28T10:05:25.172Z,12.70
2019-02-28T10:08:01.554Z,13.03
2019-02-28T10:10:31.167Z,15.95
2019-02-28T10:12:59.785Z,21.77
2019-02-28T10:15:28.463Z,10.63
2019-02-28T10:17:57.110Z,10.10
2019-02-28T10:20:30.031Z,11.00
2019-02-28T10:22:58.632Z,11.90
2019-02-28T10:25:27.237Z,11.50
2019-02-28T10:28:01.728Z,11.12
2019-02-28T10:30:31.796Z,12.37
2019-02-28T10:32:57.457Z,10.80
2019-02-28T10:35:26.138Z,11.70
2019-02-28T10:37:58.418Z,9.38
2019-02-28T10:40:27.487Z,10.38
2019-02-28T10:42:56.099Z,11.40
2019-02-28T10:45:25.289Z,10.90
2019-02-28T10:47:53.898Z,9.70
2019-02-28T10:50:32.149Z,11.30
2019-02-28T10:53:04.023Z,9.90
2019-02-28T10:55:28.771Z,10.40
2019-02-28T10:57:57.392Z,10.15
2019-02-28T11:00:32.673Z,10.00
2019-02-28T11:03:01.273Z,11.33
2019-02-28T11:05:37.917Z,11.95
2019-02-28T11:08:09.652Z,11.88
2019-02-28T11:10:40.188Z,15.03
2019-02-28T11:13:11.810Z,14.35
2019-02-28T11:15:40.555Z,14.73
2019-02-28T11:18:10.060Z,19.55
2019-02-28T11:20:39.773Z,15.85
2019-02-28T11:23:14.323Z,10.50
2019-02-28T11:25:39.984Z,14.75
2019-02-28T11:28:08.580Z,14.80
2019-02-28T11:30:37.199Z,12.78
2019-02-28T11:33:06.251Z,13.32
2019-02-28T11:35:35.057Z,13.10
2019-02-28T11:38:05.005Z,12.80
2019-02-28T11:40:34.233Z,11.73
2019-02-28T11:43:03.978Z,14.87
2019-02-28T11:45:37.975Z,15.63
2019-02-28T11:48:08.886Z,11.75
2019-02-28T11:50:41.213Z,13.30
2019-02-28T11:53:07.865Z,13.18
2019-02-28T11:55:36.497Z,13.05
2019-02-28T11:58:05.106Z,14.70
2019-02-28T12:00:36.753Z,15.53
2019-02-28T12:03:05.989Z,16.17
2019-02-28T12:05:34.783Z,13.50
2019-02-28T12:08:09.247Z,14.47
2019-02-28T12:10:33.894Z,13.22
2019-02-28T12:13:02.567Z,16.85
2019-02-28T12:15:38.193Z,12.65
2019-02-28T12:18:06.559Z,14.70
2019-02-28T12:20:35.196Z,15.58
2019-02-28T12:23:03.918Z,12.90
2019-02-28T12:25:32.740Z,17.77
2019-02-28T12:28:02.833Z,13.70
2019-02-28T12:30:33.654Z,17.25
2019-02-28T12:33:02.279Z,13.62
2019-02-28T12:35:37.437Z,23.52
2019-02-28T12:38:01.414Z,15.18
2019-02-28T12:40:32.202Z,15.85
2019-02-28T12:45:47.378Z,43.52
2019-02-28T12:48:16.217Z,20.88
2019-02-28T12:50:44.749Z,20.65
2019-02-28T12:53:13.325Z,18.60
2019-02-28T12:55:42.027Z,19.17
2019-02-28T12:58:10.571Z,18.77
2019-02-28T13:00:41.019Z,58.33
2019-02-28T13:03:09.801Z,19.25
2019-02-28T13:05:38.436Z,85.32
2019-02-28T13:08:07.318Z,97.02
2019-02-28T13:10:36.246Z,26.25
2019-02-28T13:13:07.396Z,54.90
2019-02-28T13:15:35.927Z,16.48
2019-02-28T13:18:08.977Z,14.78
2019-02-28T13:20:38.787Z,14.28
2019-02-28T13:23:07.414Z,14.53
2019-02-28T13:25:36.048Z,19.50
2019-02-28T13:28:05.959Z,14.95
2019-02-28T13:30:34.617Z,15.32
2019-02-28T13:33:03.161Z,15.53
2019-02-28T13:35:37.214Z,15.35
2019-02-28T13:38:05.848Z,14.25
2019-02-28T13:40:34.402Z,13.30
2019-02-28T13:43:03.023Z,15.15
2019-02-28T13:45:31.719Z,21.73
2019-02-28T13:48:00.276Z,20.30
2019-02-28T13:50:33.643Z,18.17
2019-02-28T13:53:15.743Z,15.65
2019-02-28T13:55:32.645Z,16.25
2019-02-28T13:58:01.364Z,27.02
2019-02-28T14:00:34.833Z,21.62
2019-02-28T14:03:11.031Z,14.70
2019-02-28T14:05:41.467Z,13.83
2019-02-28T14:08:12.173Z,20.90
2019-02-28T14:10:40.753Z,18.60
2019-02-28T14:13:09.457Z,20.92
2019-02-28T14:15:47.941Z,22.15
2019-02-28T14:18:16.717Z,17.50
2019-02-28T14:20:45.334Z,18.35
2019-02-28T14:23:13.976Z,14.03
2019-02-28T14:25:42.521Z,14.45
2019-02-28T14:28:11.154Z,16.52
2019-02-28T14:30:39.881Z,11.10
2019-02-28T14:33:08.888Z,11.70
2019-02-28T14:35:38.620Z,11.80
2019-02-28T14:38:07.542Z,12.88
2019-02-28T14:40:36.147Z,14.07
2019-02-28T14:43:04.769Z,13.53
2019-02-28T14:45:39.118Z,15.28
2019-02-28T14:48:06.546Z,15.95
2019-02-28T14:50:35.202Z,14.65
2019-02-28T14:53:03.816Z,13.88
2019-02-28T14:55:33.496Z,16.10
2019-02-28T14:58:02.333Z,18.00
2019-02-28T15:00:35.554Z,13.48
2019-02-28T15:03:04.383Z,23.15
2019-02-28T15:05:36.292Z,21.25
2019-02-28T15:08:05.204Z,25.10
2019-02-28T15:10:35.172Z,20.37
2019-02-28T15:13:04.911Z,20.55
2019-02-28T15:15:36.112Z,18.23
2019-02-28T15:18:04.468Z,14.85
2019-02-28T15:20:33.399Z,17.10
2019-02-28T15:23:02.126Z,19.02
2019-02-28T15:25:31.140Z,19.48
2019-02-28T15:27:59.784Z,18.82
2019-02-28T15:30:33.987Z,25.82
2019-02-28T15:33:03.453Z,19.17
2019-02-28T15:35:32.049Z,17.12
2019-02-28T15:38:00.739Z,18.40
2019-02-28T15:40:32.286Z,20.92
2019-02-28T15:43:00.890Z,17.42
2019-02-28T15:45:29.539Z,16.45
2019-02-28T15:47:59.007Z,18.55
2019-02-28T15:50:28.413Z,19.57
2019-02-28T15:52:57.547Z,27.32
2019-02-28T15:55:26.356Z,18.30
2019-02-28T15:57:56.564Z,29.85
2019-02-28T16:00:33.773Z,18.12
2019-02-28T16:03:02.434Z,19.60
2019-02-28T16:05:31.073Z,22.98
2019-02-28T16:08:00.805Z,21.93
2019-02-28T16:10:34.922Z,20.90
2019-02-28T16:13:05.168Z,22.60
2019-02-28T16:15:33.812Z,25.52
2019-02-28T16:18:02.444Z,23.70
2019-02-28T16:20:31.966Z,29.70
2019-02-28T16:23:01.418Z,36.93
2019-02-28T16:25:40.479Z,26.37
2019-02-28T16:28:09.419Z,30.05
2019-02-28T16:30:39.218Z,152.57
2019-02-28T16:33:07.811Z,23.80
2019-02-28T16:35:36.573Z,23.62
2019-02-28T16:38:06.580Z,25.75
2019-02-28T16:40:36.515Z,22.40
2019-02-28T16:43:05.147Z,26.10
2019-02-28T16:45:40.789Z,27.35
2019-02-28T16:48:11.689Z,22.70
2019-02-28T16:50:40.358Z,55.28
2019-02-28T16:53:14.816Z,45.30
2019-02-28T16:55:39.309Z,25.43
2019-02-28T16:58:07.878Z,29.20
2019-02-28T17:00:39.555Z,24.40
2019-02-28T17:03:07.319Z,24.23
2019-02-28T17:05:39.486Z,22.90
2019-02-28T17:08:08.202Z,21.77
2019-02-28T17:10:40.154Z,23.30
2019-02-28T17:13:13.000Z,19.92
2019-02-28T17:15:55.842Z,26.87
2019-02-28T17:18:27.347Z,24.23
2019-02-28T17:20:55.963Z,30.52
2019-02-28T17:23:24.581Z,37.90
2019-02-28T17:25:53.542Z,42.90
2019-02-28T17:28:41.450Z,37.40
2019-02-28T17:31:12.477Z,26.02
2019-02-28T17:33:43.404Z,29.00
2019-02-28T17:36:12.541Z,23.75
2019-02-28T17:38:41.276Z,25.37
2019-02-28T17:41:11.131Z,28.98
2019-02-28T17:43:40.878Z,33.83
2019-02-28T17:46:14.988Z,30.88
2019-02-28T17:48:52.697Z,36.68
2019-02-28T17:51:30.081Z,29.45
2019-02-28T17:54:07.529Z,23.35
2019-02-28T17:56:55.762Z,29.63
2019-02-28T17:59:51.452Z,24.23
2019-02-28T18:02:31.323Z,25.92
2019-02-28T18:05:29.719Z,25.15
2019-02-28T18:08:03.585Z,32.93
2019-02-28T18:10:59.175Z,25.15
2019-02-28T18:13:35.648Z,28.47
2019-02-28T18:16:42.048Z,29.23
2019-02-28T18:19:34.180Z,78.15
2019-02-28T18:22:24.941Z,55.67
2019-02-28T18:25:01.983Z,45.10
2019-02-28T18:27:36.483Z,32.28
2019-02-28T18:30:24.449Z,35.90
2019-02-28T18:32:53.070Z,60.35
2019-02-28T18:35:21.690Z,29.30
2019-02-28T18:37:50.533Z,31.15
2019-02-28T18:40:19.149Z,27.95
2019-02-28T18:42:47.797Z,24.57
2019-02-28T18:45:19.169Z,45.50
2019-02-28T18:47:46.809Z,41.30
2019-02-28T18:50:15.453Z,66.57
2019-02-28T18:52:44.116Z,29.87
2019-02-28T18:55:12.761Z,32.67
2019-02-28T18:57:41.410Z,38.28
2019-02-28T19:00:13.673Z,27.05
2019-02-28T19:02:42.324Z,33.95
2019-02-28T19:05:10.943Z,30.92
2019-02-28T19:07:39.550Z,64.25
2019-02-28T19:10:10.088Z,40.45
2019-02-28T19:12:38.695Z,37.05
2019-02-28T19:15:09.982Z,26.37
2019-02-28T19:17:38.455Z,39.27
2019-02-28T19:20:09.233Z,30.35
2019-02-28T19:22:37.883Z,145.80
2019-02-28T19:25:09.096Z,46.92
2019-02-28T19:27:37.672Z,25.88
2019-02-28T19:30:11.777Z,31.27
2019-02-28T19:32:40.350Z,39.13
2019-02-28T19:35:08.978Z,36.58
2019-02-28T19:37:37.618Z,46.65
2019-02-28T19:40:11.516Z,46.10
2019-02-28T19:42:40.078Z,69.20
2019-02-28T19:45:23.729Z,43.38
2019-02-28T19:47:52.215Z,43.60
2019-02-28T19:50:20.833Z,33.70
2019-02-28T19:52:49.437Z,56.60
2019-02-28T19:55:18.082Z,44.65
2019-02-28T19:57:46.720Z,52.35
2019-02-28T20:00:17.141Z,44.23
2019-02-28T20:02:45.807Z,35.98
2019-02-28T20:05:14.722Z,30.77
2019-02-28T20:07:43.328Z,38.25
2019-02-28T20:10:19.709Z,38.33
2019-02-28T20:12:48.346Z,33.40
2019-02-28T20:15:18.341Z,39.15
2019-02-28T20:17:46.965Z,32.88
2019-02-28T20:20:19.208Z,41.48
2019-02-28T20:22:47.737Z,35.65
2019-02-28T20:25:16.912Z,46.58
2019-02-28T20:27:45.537Z,40.85
2019-02-28T20:30:18.739Z,40.65
2019-02-28T20:32:47.383Z,42.03
2019-02-28T20:35:16.295Z,42.25
2019-02-28T20:37:44.959Z,41.60
2019-02-28T20:40:19.472Z,43.02
2019-02-28T20:42:48.046Z,46.55
2019-02-28T20:45:16.513Z,40.20
2019-02-28T20:47:45.055Z,51.45
2019-02-28T20:50:22.371Z,43.98
2019-02-28T20:52:51.051Z,40.45
2019-02-28T20:55:19.703Z,52.00
2019-02-28T20:57:48.268Z,45.00
2019-02-28T21:00:19.658Z,43.52
2019-02-28T21:02:48.204Z,39.58
2019-02-28T21:05:16.808Z,38.70
2019-02-28T21:07:45.304Z,40.33
2019-02-28T21:10:13.913Z,43.65
2019-02-28T21:12:42.552Z,41.28
2019-02-28T21:15:12.256Z,42.98
2019-02-28T21:17:40.904Z,44.83
2019-02-28T21:20:16.507Z,46.98
2019-02-28T21:22:45.136Z,43.30
2019-02-28T21:25:15.207Z,43.42
2019-02-28T21:27:43.761Z,53.35
2019-02-28T21:30:17.508Z,49.75
2019-02-28T21:32:46.120Z,59.48
2019-02-28T21:35:16.295Z,50.03
2019-02-28T21:37:46.317Z,49.88
2019-02-28T21:40:19.586Z,47.83
2019-02-28T21:42:48.125Z,52.08
2019-02-28T21:45:22.205Z,57.08
2019-02-28T21:47:50.836Z,51.70
2019-02-28T21:50:19.547Z,51.73
2019-02-28T21:52:48.248Z,52.73
2019-02-28T21:55:17.692Z,56.02
2019-02-28T21:57:46.340Z,60.78
2019-02-28T22:00:21.017Z,62.67
2019-02-28T22:02:49.516Z,63.78
2019-02-28T22:05:18.117Z,53.15
2019-02-28T22:07:46.625Z,54.33
2019-02-28T22:10:16.128Z,60.80
2019-02-28T22:12:44.738Z,55.40
2019-02-28T22:15:20.600Z,58.23
2019-02-28T22:17:49.236Z,58.05
2019-02-28T22:20:17.838Z,56.10
2019-02-28T22:22:46.479Z,55.65
2019-02-28T22:25:15.991Z,58.60
2019-02-28T22:27:44.635Z,66.47
2019-02-28T22:30:37.821Z,66.85
2019-02-28T22:33:08.072Z,71.15
2019-02-28T22:35:54.519Z,68.67
2019-02-28T22:38:23.083Z,69.95
2019-02-28T22:40:51.763Z,71.42
2019-02-28T22:43:20.239Z,74.40
2019-02-28T22:45:48.837Z,70.10
2019-02-28T22:48:17.486Z,60.65
2019-02-28T22:50:46.024Z,62.95
2019-02-28T22:53:14.597Z,60.83
2019-02-28T22:55:43.198Z,63.25
2019-02-28T22:58:12.239Z,64.42
2019-02-28T23:01:06.198Z,61.50
2019-02-28T23:03:36.085Z,65.47
2019-02-28T23:06:05.202Z,60.98
2019-02-28T23:08:33.844Z,62.25
2019-02-28T23:11:02.456Z,65.05
2019-02-28T23:13:31.079Z,70.50
2019-02-28T23:15:59.707Z,64.07
2019-02-28T23:18:28.355Z,62.05
2019-02-28T23:20:56.962Z,63.55
2019-02-28T23:23:25.572Z,61.60
2019-02-28T23:25:54.211Z,63.23
2019-02-28T23:28:34.997Z,64.22
2019-02-28T23:31:21.495Z,72.50
2019-02-28T23:33:50.043Z,65.67
2019-02-28T23:36:18.650Z,64.58
2019-02-28T23:38:47.230Z,63.38
2019-02-28T23:41:15.755Z,71.17
2019-02-28T23:43:44.261Z,65.95
2019-02-28T23:46:12.795Z,72.97
2019-02-28T23:48:42.433Z,68.40
2019-02-28T23:51:11.166Z,65.85
2019-02-28T23:53:39.808Z,69.92
2019-02-28T23:56:08.349Z,72.17
2019-02-28T23:58:36.814Z,70.57
